Terminal Aerodrome Forecast
Issued by NWS

Home | Current Version | Previous Version | Text Only | Print | Product List | Glossary On
Versions: 1 2 3 4 5 6 7 8 9 10 11 12 13 14 15
000
FTUS45 KABQ 221100
TAFTCC
TAF
KTCC 221137Z 2212/2312 24010KT P6SM SCT020 BKN100
      TEMPO 2212/2215 BKN015
     FM221700 23011KT P6SM BKN050
     FM222000 20010KT P6SM BKN100
     FM230600 25007KT P6SM SCT120=

USA.gov is the U.S. government's official web portal to all federal, state and local government web resources and services.